KTYS/TYS METAR and TAF weather

Enter ICAO airport designator
Station Type Date Time Source
KTYS METAR 2022/06/29 23:53 UTC NOAA

KTYS 292353Z 06005KT 10SM FEW060 FEW130 SCT250 31/18 A3016 RMK AO2 SLP201 T03060183 10328 20300 55000


Station Type Date Time Source
KTYS Decoded METAR 2022/06/29 23:53 UTC NOAA

MCGHEE TYSON AIRPORT, TN, United States (KTYS) 35-49N 083-59W 302M
Jun 29, 2022 - 07:53 PM EDT / 2022.06.29 2353 UTC
Wind: from the ENE (060 degrees) at 6 MPH (5 KT):0
Visibility: 10 mile(s):0
Sky conditions: partly cloudy
Temperature: 87.1 F (30.6 C)
Dew Point: 64.9 F (18.3 C)
Relative Humidity: 47%
Pressure (altimeter): 30.16 in. Hg (1021 hPa)
Pressure tendency: 0.00 inches (0.0 hPa) lower than three hours ago
ob: KTYS 292353Z 06005KT 10SM FEW060 FEW130 SCT250 31/18 A3016 RMK AO2 SLP201 T03060183 10328 20300 55000
cycle: 0

Station Type Date Time Source
KTYS TAF 2022/06/29 18:27 UTC NOAA

TAF KTYS 291724Z 2918/3018 VRB05KT P6SM VCSH SCT035 BKN250
FM292000 VRB05KT P6SM -SHRA VCTS BKN040CB
FM292200 VRB05KT P6SM SCT035 SCT250

Example: see airport list